Time;durP1;ratioP1;P1;durP2;ratioP2;P2;SDS_P1;SDS_P2;PMS_P1;PMS_P2;Temp;Humidity;BMP_temperature;BMP_pressure;BME280_temperature;BME280_humidity;BME280_pressure;Samples;Min_cycle;Max_cycle;Signal;HPM_P1;HPM_P2
2023/09/12 00:01:06;;;;;;;2.58;1.50;;;;;;;-144.30;41.47;84949.19;5068944;28;20204;-52
2023/09/12 00:03:35;;;;;;;5.18;1.73;;;;;;;-144.30;41.53;84965.06;5069376;28;20695;-52
2023/09/12 00:06:03;;;;;;;1.80;1.70;;;;;;;-144.30;41.77;84967.06;5069022;28;20690;-52
2023/09/12 00:08:30;;;;;;;1.60;1.45;;;;;;;-144.30;41.71;84982.97;5070783;28;20208;-53
2023/09/12 00:11:02;;;;;;;1.83;1.55;;;;;;;-144.30;41.82;84937.25;5073364;28;20227;-57
2023/09/12 00:13:30;;;;;;;6.30;1.88;;;;;;;-144.30;41.69;84899.47;5073304;28;20192;-52
2023/09/12 00:15:57;;;;;;;2.38;1.80;;;;;;;-144.30;41.68;84943.22;5072758;28;20192;-52
2023/09/12 00:18:24;;;;;;;2.10;1.90;;;;;;;-144.30;42.24;84935.25;5072911;28;20595;-52
2023/09/12 00:20:52;;;;;;;3.78;1.75;;;;;;;-144.30;42.44;84961.09;5073063;28;20200;-58
2023/09/12 00:23:19;;;;;;;3.97;1.88;;;;;;;-144.30;42.92;84961.09;5072946;28;20207;-59
2023/09/12 00:25:46;;;;;;;2.28;2.00;;;;;;;-144.30;43.04;84927.31;5072671;28;20658;-52
2023/09/12 00:28:13;;;;;;;2.27;2.07;;;;;;;-144.30;43.12;85000.84;5072643;28;20699;-59
2023/09/12 00:30:40;;;;;;;2.23;2.03;;;;;;;-144.30;43.36;84977.00;5073097;28;20688;-59
2023/09/12 00:33:07;;;;;;;2.67;1.70;;;;;;;-144.30;43.40;84965.06;5072778;28;20287;-59
2023/09/12 00:35:33;;;;;;;1.70;1.60;;;;;;;-144.30;43.75;84982.97;5073014;28;20584;-59
2023/09/12 00:38:02;;;;;;;4.90;2.10;;;;;;;-144.30;43.89;85002.84;5072244;28;20188;-58
2023/09/12 00:40:29;;;;;;;1.83;1.73;;;;;;;-144.30;43.89;85018.75;5072533;28;20576;-58
2023/09/12 00:42:56;;;;;;;2.23;2.07;;;;;;;-144.30;45.50;85002.84;5072589;28;20703;-58
2023/09/12 00:45:23;;;;;;;8.00;2.33;;;;;;;-144.30;46.09;85050.53;5072720;28;20195;-58
2023/09/12 00:47:51;;;;;;;5.23;2.80;;;;;;;-144.30;47.81;85020.72;5072455;28;20219;-58
2023/09/12 00:50:21;;;;;;;9.20;3.83;;;;;;;-144.30;50.45;85048.56;5072487;28;20671;-52
2023/09/12 00:52:48;;;;;;;12.40;4.60;;;;;;;-144.30;52.29;85064.47;5072427;28;20196;-58
2023/09/12 00:55:17;;;;;;;7.43;4.40;;;;;;;-144.30;53.96;85082.34;5072415;28;20317;-59
2023/09/12 00:57:44;;;;;;;15.23;5.73;;;;;;;-144.30;54.42;85060.50;5072222;28;20200;-58
2023/09/12 01:00:13;;;;;;;13.67;4.70;;;;;;;-144.30;54.92;85088.31;5072211;28;20213;-51
2023/09/12 01:02:41;;;;;;;5.43;3.50;;;;;;;-144.30;54.70;85114.16;5072275;28;20210;-51
2023/09/12 01:05:10;;;;;;;3.53;3.20;;;;;;;-144.30;54.62;85080.38;5072211;28;20208;-51
2023/09/12 01:07:37;;;;;;;5.00;2.80;;;;;;;-144.30;55.23;85078.38;5071901;28;20225;-51
2023/09/12 01:10:05;;;;;;;4.33;3.80;;;;;;;-144.30;55.90;85122.09;5071704;28;20206;-53
2023/09/12 01:12:34;;;;;;;6.43;3.73;;;;;;;-144.30;56.74;85140.00;5072181;28;20214;-53
2023/09/12 01:15:01;;;;;;;5.10;4.20;;;;;;;-144.30;57.30;85126.09;5071813;28;20593;-53
2023/09/12 01:17:28;;;;;;;6.20;3.97;;;;;;;-144.30;57.96;85110.19;5071804;28;20238;-53
2023/09/12 01:19:55;;;;;;;7.63;3.90;;;;;;;-144.30;57.91;85134.03;5070544;28;20192;-53
2023/09/12 01:22:41;;;;;;;4.80;3.10;;;;;;;-144.30;57.70;85118.13;5071575;28;20196;-51
2023/09/12 01:25:54;;;;;;;3.63;3.00;;;;;;;-144.30;57.54;85141.97;5071620;28;20200;-52
2023/09/12 01:28:25;;;;;;;8.60;3.77;;;;;;;-144.30;57.66;85153.91;5043490;28;20719;-58
2023/09/12 01:30:52;;;;;;;5.57;3.53;;;;;;;-144.30;57.77;85116.16;5071720;28;20199;-51
2023/09/12 01:33:20;;;;;;;10.13;3.77;;;;;;;-144.30;57.49;85134.03;5071476;28;20706;-53
2023/09/12 01:35:47;;;;;;;5.90;3.50;;;;;;;-144.30;57.03;85157.88;5071502;28;20237;-52
2023/09/12 01:38:14;;;;;;;13.50;3.43;;;;;;;-144.30;56.70;85128.06;5071380;28;20192;-52
2023/09/12 01:40:45;;;;;;;9.17;3.73;;;;;;;-144.30;57.21;85122.09;5071440;28;20206;-57
2023/09/12 01:43:16;;;;;;;8.80;3.43;;;;;;;-144.30;57.01;85076.38;5071205;28;20195;-58
2023/09/12 01:45:46;;;;;;;6.70;3.40;;;;;;;-144.30;56.64;85157.88;5071358;28;20195;-58
2023/09/12 01:48:16;;;;;;;8.50;3.60;;;;;;;-144.30;57.34;85149.94;5071199;28;20230;-58
2023/09/12 01:50:43;;;;;;;4.57;3.37;;;;;;;-144.30;57.96;85046.56;5071377;28;20690;-52
2023/09/12 01:53:11;;;;;;;8.23;3.40;;;;;;;-144.30;58.32;85134.03;5070948;28;20203;-59
2023/09/12 01:55:39;;;;;;;6.80;3.57;;;;;;;-144.30;58.57;85175.78;5071040;28;20243;-59
2023/09/12 01:58:06;;;;;;;3.60;3.07;;;;;;;-144.30;58.58;85145.97;5071124;28;20743;-59
2023/09/12 02:00:35;;;;;;;5.50;3.30;;;;;;;-144.30;58.74;85185.72;5071142;28;20200;-58
2023/09/12 02:03:05;;;;;;;6.17;2.67;;;;;;;-144.30;58.65;85153.91;5070663;28;20196;-58
2023/09/12 02:05:33;;;;;;;4.03;2.80;;;;;;;-144.30;59.48;85177.75;5070912;28;20206;-59
2023/09/12 02:08:00;;;;;;;3.90;3.00;;;;;;;-144.30;59.55;85173.78;5070804;28;20311;-59
2023/09/12 02:10:27;;;;;;;11.67;3.20;;;;;;;-144.30;60.48;85163.84;5070778;28;20202;-52
2023/09/12 02:12:54;;;;;;;14.30;3.10;;;;;;;-144.30;61.18;85187.69;5071290;28;20545;-52
2023/09/12 02:15:21;;;;;;;7.60;3.20;;;;;;;-144.30;61.45;85185.72;5070535;28;20319;-52
2023/09/12 02:17:50;;;;;;;7.40;2.80;;;;;;;-144.30;60.99;85205.59;5070630;28;20237;-52
2023/09/12 02:20:19;;;;;;;4.67;2.87;;;;;;;-144.30;61.11;85219.50;5070517;28;20192;-56
2023/09/12 02:22:46;;;;;;;8.90;2.60;;;;;;;-144.30;61.10;85233.44;5070706;28;20196;-53
2023/09/12 02:25:13;;;;;;;5.37;2.77;;;;;;;-144.30;60.87;85044.59;5070517;28;20603;-58
2023/09/12 02:27:40;;;;;;;5.50;3.07;;;;;;;-144.30;61.30;85197.66;5070669;28;20220;-58
2023/09/12 02:30:08;;;;;;;10.27;2.73;;;;;;;-144.30;62.08;85213.53;5070313;28;20196;-51
2023/09/12 02:32:35;;;;;;;5.87;2.90;;;;;;;-144.30;62.23;85245.34;5070398;28;20204;-52
2023/09/12 02:35:02;;;;;;;5.53;3.03;;;;;;;-144.30;62.51;85233.44;5069910;28;20199;-52
2023/09/12 02:37:30;;;;;;;4.63;3.50;;;;;;;-144.30;62.81;85229.44;5070413;28;20188;-53
2023/09/12 02:39:57;;;;;;;7.47;3.67;;;;;;;-144.30;62.73;85225.47;5070376;28;20203;-57
2023/09/12 02:42:25;;;;;;;6.10;3.87;;;;;;;-144.30;62.59;85233.44;5070379;28;20586;-58
2023/09/12 02:44:53;;;;;;;4.83;4.43;;;;;;;-144.30;62.87;85173.78;5070201;28;20294;-59
2023/09/12 02:47:20;;;;;;;5.33;3.90;;;;;;;-144.30;63.30;85165.84;5070023;28;20665;-52
2023/09/12 02:49:47;;;;;;;5.23;3.90;;;;;;;-144.30;63.57;85205.59;5070193;28;20196;-52
2023/09/12 02:52:14;;;;;;;5.30;4.10;;;;;;;-144.30;64.21;85207.59;5069998;28;20200;-52
2023/09/12 02:54:42;;;;;;;9.63;4.33;;;;;;;-144.30;64.91;85205.59;5070272;28;20223;-52
2023/09/12 02:57:09;;;;;;;6.27;4.17;;;;;;;-144.30;64.61;85205.59;5069948;28;20196;-52
2023/09/12 02:59:36;;;;;;;7.80;4.30;;;;;;;-144.30;64.82;85219.50;5069999;28;20576;-53
2023/09/12 03:02:03;;;;;;;6.43;4.50;;;;;;;-144.30;64.83;85221.50;5069484;28;20576;-53
2023/09/12 03:04:30;;;;;;;5.13;3.97;;;;;;;-144.30;65.29;85237.41;5069914;28;20196;-53
2023/09/12 03:06:57;;;;;;;6.23;4.90;;;;;;;-144.30;65.84;85247.34;5069937;28;20198;-52
2023/09/12 03:09:24;;;;;;;8.47;4.67;;;;;;;-144.30;65.95;85253.31;5069744;28;20245;-51
2023/09/12 03:11:52;;;;;;;6.93;4.43;;;;;;;-144.30;65.81;85235.41;5069960;28;20609;-52
2023/09/12 03:14:19;;;;;;;7.47;4.53;;;;;;;-144.30;66.35;85237.41;5070293;28;20578;-52
2023/09/12 03:16:46;;;;;;;7.40;4.33;;;;;;;-144.30;67.06;85221.50;5069486;28;20577;-57
2023/09/12 03:19:13;;;;;;;11.40;4.43;;;;;;;-144.30;68.18;85293.06;5069560;28;20188;-50
2023/09/12 03:21:40;;;;;;;4.30;4.00;;;;;;;-144.30;68.02;85255.28;5069493;28;20200;-58
2023/09/12 03:24:07;;;;;;;6.67;4.47;;;;;;;-144.30;68.63;85303.00;5069572;28;20292;-52
2023/09/12 03:26:35;;;;;;;4.70;4.07;;;;;;;-144.30;68.84;85181.75;5069619;28;20202;-51
2023/09/12 03:29:04;;;;;;;6.00;4.23;;;;;;;-144.30;69.10;85308.97;5069180;28;20227;-52
2023/09/12 03:31:31;;;;;;;5.73;4.20;;;;;;;-144.30;69.25;85299.03;5069671;28;20195;-58
2023/09/12 03:33:58;;;;;;;9.13;4.27;;;;;;;-144.30;69.47;85312.94;5069369;28;20196;-58
2023/09/12 03:36:25;;;;;;;6.40;4.90;;;;;;;-144.30;69.17;85295.06;5069727;28;20203;-53
2023/09/12 03:38:52;;;;;;;6.90;4.67;;;;;;;-144.30;69.22;85295.06;5070043;28;20196;-51
2023/09/12 03:41:18;;;;;;;7.90;4.50;;;;;;;-144.30;68.96;85285.09;5069211;28;20211;-58
2023/09/12 03:43:45;;;;;;;5.00;4.50;;;;;;;-144.30;69.15;85285.09;5069290;28;20206;-51
2023/09/12 03:46:14;;;;;;;6.77;4.67;;;;;;;-144.30;69.18;85324.88;5069146;28;20196;-52
2023/09/12 03:48:41;;;;;;;4.50;3.87;;;;;;;-144.30;68.93;85342.75;5069538;28;20291;-59
2023/09/12 03:51:08;;;;;;;5.43;4.83;;;;;;;-144.30;68.97;85318.91;5068853;28;20203;-51
2023/09/12 03:53:35;;;;;;;8.13;4.47;;;;;;;-144.30;69.23;85356.69;5068190;28;20206;-51
2023/09/12 03:56:02;;;;;;;5.17;4.47;;;;;;;-144.30;69.26;85318.91;5067824;28;20207;-49
2023/09/12 03:58:29;;;;;;;8.80;4.50;;;;;;;-144.30;69.39;85293.06;5067605;28;20631;-50
2023/09/12 04:00:56;;;;;;;5.73;4.20;;;;;;;-144.30;69.08;85348.72;5069325;28;20204;-50
2023/09/12 04:03:24;;;;;;;6.10;3.80;;;;;;;-144.30;69.15;85322.88;5069257;28;20676;-50
2023/09/12 04:05:52;;;;;;;4.97;4.57;;;;;;;-144.30;69.35;85312.94;5069261;28;20584;-50
2023/09/12 04:08:19;;;;;;;11.57;4.43;;;;;;;-144.30;69.35;85356.69;5068792;28;20220;-50
2023/09/12 04:10:46;;;;;;;5.40;4.23;;;;;;;-144.30;69.89;85332.81;5068707;28;20401;-50
2023/09/12 04:13:12;;;;;;;6.60;4.23;;;;;;;-144.30;69.93;85340.78;5069057;28;20503;-50
2023/09/12 04:15:39;;;;;;;6.43;4.63;;;;;;;-144.30;70.55;85338.78;5068889;28;20192;-48
2023/09/12 04:18:07;;;;;;;6.80;5.20;;;;;;;-144.30;70.69;85320.91;5068607;28;20615;-50
2023/09/12 04:20:35;;;;;;;13.30;6.33;;;;;;;-144.30;71.25;85344.75;5068837;28;20233;-50
2023/09/12 04:23:03;;;;;;;14.17;6.50;;;;;;;-144.30;70.67;85283.13;5068742;28;20286;-57
2023/09/12 04:25:30;;;;;;;14.33;6.60;;;;;;;-144.30;70.29;85312.94;5068997;28;20283;-58
2023/09/12 04:27:57;;;;;;;12.43;6.40;;;;;;;-144.30;70.02;85247.34;5069050;28;20227;-58
2023/09/12 04:30:24;;;;;;;13.20;6.10;;;;;;;-144.30;70.15;85295.06;5069047;28;20530;-58
2023/09/12 04:32:51;;;;;;;9.50;6.17;;;;;;;-144.30;70.57;85297.03;5069011;28;20196;-57
2023/09/12 04:35:19;;;;;;;20.70;6.00;;;;;;;-144.30;71.06;85281.13;5068867;28;20221;-58
2023/09/12 04:37:47;;;;;;;10.63;5.77;;;;;;;-144.30;70.76;85322.88;5068851;28;20214;-58
2023/09/12 04:40:14;;;;;;;5.40;4.90;;;;;;;-144.30;70.40;85338.78;5068243;28;20211;-51
2023/09/12 04:42:41;;;;;;;6.43;5.70;;;;;;;-144.30;70.17;85273.19;5068707;28;20194;-50
2023/09/12 04:45:08;;;;;;;6.13;5.30;;;;;;;-144.30;69.13;85281.13;5068459;28;20202;-51
2023/09/12 04:47:35;;;;;;;6.00;5.40;;;;;;;-144.30;68.13;85293.06;5068292;28;20188;-51
2023/09/12 04:50:02;;;;;;;8.77;4.70;;;;;;;-144.30;66.98;85259.28;5067982;28;20223;-51
2023/09/12 04:52:29;;;;;;;8.03;5.40;;;;;;;-144.30;66.56;85237.41;5068332;28;20684;-51
2023/09/12 04:54:58;;;;;;;8.87;5.50;;;;;;;-144.30;66.24;85213.53;5069256;28;20707;-51
2023/09/12 04:57:25;;;;;;;7.60;6.23;;;;;;;-144.30;66.49;85249.34;5068418;28;20226;-52
2023/09/12 04:59:53;;;;;;;10.57;5.70;;;;;;;-144.30;66.50;85263.25;5071160;28;20196;-50
2023/09/12 05:02:20;;;;;;;7.90;4.70;;;;;;;-144.30;65.46;85233.44;5070695;28;20196;-50
2023/09/12 05:04:47;;;;;;;5.97;5.20;;;;;;;-144.30;63.39;85138.00;5070456;28;20198;-57
2023/09/12 05:07:14;;;;;;;11.13;5.40;;;;;;;-144.30;58.96;84971.03;5070539;28;20703;-56
2023/09/12 05:09:40;;;;;;;10.93;4.50;;;;;;;-144.30;53.94;84806.06;5070568;28;20216;-57
2023/09/12 05:12:09;;;;;;;10.88;4.25;;;;;;;-144.30;49.21;84601.34;5070123;28;20283;-57
2023/09/12 05:14:36;;;;;;;4.03;3.70;;;;;;;-144.30;44.56;84346.97;5071403;28;20202;-50
2023/09/12 05:17:03;;;;;;;7.82;4.63;;;;;;;-144.30;40.84;84074.72;5071443;28;20548;-57
2023/09/12 05:19:31;;;;;;;6.35;3.75;;;;;;;-144.30;38.15;83905.81;5051889;28;20583;-57
2023/09/12 05:21:58;;;;;;;6.80;3.97;;;;;;;-144.30;36.46;83744.84;5051917;28;20196;-50
2023/09/12 05:24:25;;;;;;;7.60;3.92;;;;;;;-144.30;35.62;83506.41;5064345;28;20200;-52
2023/09/12 05:26:52;;;;;;;8.75;4.22;;;;;;;-144.30;35.12;83611.72;5071751;28;20207;-51
2023/09/12 05:29:20;;;;;;;12.13;4.38;;;;;;;-144.30;33.92;83502.44;5071645;28;20303;-58
2023/09/12 05:31:47;;;;;;;11.40;4.13;;;;;;;-144.30;33.64;83432.91;5071729;28;20202;-56
2023/09/12 05:34:14;;;;;;;10.80;4.22;;;;;;;-144.30;33.31;83385.22;5070584;28;20196;-52
2023/09/12 05:36:41;;;;;;;12.98;5.22;;;;;;;-144.30;32.93;83377.28;5071010;28;20202;-57
2023/09/12 05:39:07;;;;;;;9.63;4.05;;;;;;;-144.30;32.75;83222.31;5070946;28;20550;-52
2023/09/12 05:41:34;;;;;;;11.30;4.25;;;;;;;-144.30;32.02;83170.66;5070880;28;20195;-58
2023/09/12 05:44:01;;;;;;;10.82;4.15;;;;;;;-144.30;32.01;83158.75;5071122;28;20200;-50
2023/09/12 05:46:30;;;;;;;4.75;3.53;;;;;;;-144.30;31.82;83148.81;5070978;28;20291;-57
2023/09/12 05:48:57;;;;;;;9.95;4.18;;;;;;;-144.30;31.61;83059.41;5070548;28;20234;-57
2023/09/12 05:51:23;;;;;;;9.05;4.00;;;;;;;-144.30;31.47;83083.25;5070741;28;20287;-59
2023/09/12 05:53:50;;;;;;;7.38;4.20;;;;;;;-144.30;30.83;82958.09;5070639;28;20204;-57
2023/09/12 05:56:17;;;;;;;9.38;3.92;;;;;;;-144.30;30.46;82904.47;5070522;28;20206;-56
2023/09/12 05:58:44;;;;;;;7.40;3.70;;;;;;;-144.30;29.82;82769.38;5070593;28;20192;-57
2023/09/12 06:01:11;;;;;;;7.50;3.50;;;;;;;-144.30;29.04;82681.97;5070299;28;20247;-57
2023/09/12 06:03:39;;;;;;;5.30;3.40;;;;;;;-144.30;29.11;82568.75;5070605;28;20191;-57
2023/09/12 06:06:08;;;;;;;6.82;3.53;;;;;;;-144.30;28.50;82521.09;5069875;28;20206;-57
2023/09/12 06:08:35;;;;;;;7.03;3.10;;;;;;;-144.30;28.37;82467.44;5070337;28;20230;-51
2023/09/12 06:11:02;;;;;;;4.75;4.10;;;;;;;-144.30;28.25;82417.78;5069371;28;20218;-52
2023/09/12 06:13:29;;;;;;;6.63;3.63;;;;;;;-144.30;27.98;82441.63;5069064;28;20203;-52
2023/09/12 06:15:56;;;;;;;7.28;3.20;;;;;;;-144.30;28.26;82459.50;5069041;28;20313;-56
2023/09/12 06:18:24;;;;;;;6.10;3.60;;;;;;;-144.30;27.52;82250.97;5069866;28;20801;-58
2023/09/12 06:20:52;;;;;;;11.55;3.80;;;;;;;-144.30;27.53;82191.38;5068663;28;20200;-57
2023/09/12 06:23:19;;;;;;;3.83;3.40;;;;;;;-144.30;27.03;82036.47;5069919;28;20195;-57
2023/09/12 06:25:46;;;;;;;7.60;3.80;;;;;;;-144.30;26.81;81929.22;5069914;28;20206;-51
2023/09/12 06:28:12;;;;;;;11.07;3.20;;;;;;;-144.30;26.75;81911.34;5069521;28;20200;-52
2023/09/12 06:30:39;;;;;;;9.27;3.38;;;;;;;-144.30;26.29;81750.50;5069698;28;20200;-52
2023/09/12 06:33:06;;;;;;;4.15;2.72;;;;;;;-144.30;26.15;81726.66;5069623;28;20196;-52
2023/09/12 06:35:33;;;;;;;7.78;2.88;;;;;;;-144.30;26.17;81692.91;5069981;28;20199;-59
2023/09/12 06:38:02;;;;;;;7.13;3.20;;;;;;;-144.30;25.65;81496.31;5069823;28;20211;-57
2023/09/12 06:40:28;;;;;;;5.28;2.78;;;;;;;-144.30;25.34;81442.69;5069534;28;20581;-52
2023/09/12 06:42:55;;;;;;;9.98;3.25;;;;;;;-144.30;25.54;81557.88;5069351;28;20205;-57
2023/09/12 06:45:22;;;;;;;5.88;2.95;;;;;;;-144.30;25.29;81460.56;5069620;28;20197;-51
2023/09/12 06:47:49;;;;;;;6.45;3.45;;;;;;;-144.30;25.53;81508.22;5069480;28;20664;-51
2023/09/12 06:50:16;;;;;;;4.43;3.28;;;;;;;-144.30;25.37;81506.25;5069255;28;20223;-52
2023/09/12 06:52:43;;;;;;;4.05;2.70;;;;;;;-144.30;25.02;81347.38;5069491;28;20202;-51
2023/09/12 06:55:11;;;;;;;6.18;2.70;;;;;;;-144.30;24.42;81117.06;5069279;28;20199;-58
2023/09/12 06:57:39;;;;;;;4.53;3.15;;;;;;;-144.30;24.79;81160.75;5069336;28;20191;-57
2023/09/12 07:00:07;;;;;;;7.30;2.60;;;;;;;-144.30;24.43;81017.78;5069112;28;20196;-58
2023/09/12 07:02:34;;;;;;;7.20;2.45;;;;;;;-144.30;24.58;81132.94;5069379;28;20706;-57
2023/09/12 07:05:03;;;;;;;6.93;2.85;;;;;;;-144.30;24.56;81144.88;5069193;28;20201;-57
2023/09/12 07:07:30;;;;;;;3.08;2.60;;;;;;;-144.30;24.39;81212.38;5069102;28;20196;-52
2023/09/12 07:09:57;;;;;;;5.18;2.72;;;;;;;-144.30;24.63;81325.56;5068934;28;20215;-50
2023/09/12 07:12:25;;;;;;;3.10;2.50;;;;;;;-144.30;24.92;81365.25;5069100;28;20218;-51
2023/09/12 07:14:52;;;;;;;7.95;2.92;;;;;;;-144.30;24.88;81391.06;5069114;28;20206;-51
2023/09/12 07:17:19;;;;;;;2.92;2.50;;;;;;;-144.30;24.71;81373.19;5068174;28;20234;-54
2023/09/12 07:19:46;;;;;;;2.03;1.92;;;;;;;-144.30;24.88;81476.47;5069032;28;20203;-57
2023/09/12 07:22:13;;;;;;;7.88;2.50;;;;;;;-144.30;24.79;81295.75;5068920;28;20195;-58
2023/09/12 07:24:40;;;;;;;5.28;2.60;;;;;;;-144.30;24.44;81252.09;5068896;28;20201;-58
2023/09/12 07:27:07;;;;;;;3.08;2.50;;;;;;;-144.30;24.35;81224.28;5068938;28;20195;-50
2023/09/12 07:29:35;;;;;;;3.20;2.83;;;;;;;-144.30;23.67;81029.72;5068919;28;20223;-52
2023/09/12 07:32:02;;;;;;;4.43;2.25;;;;;;;-144.30;23.62;80984.03;5068829;28;20203;-52
2023/09/12 07:34:29;;;;;;;6.90;5.43;;;;;;;-144.30;23.33;80648.53;5068788;28;20199;-52
2023/09/12 07:36:55;;;;;;;3.78;3.38;;;;;;;-144.30;23.50;80573.09;5068933;28;20916;-51
2023/09/12 07:39:22;;;;;;;5.55;3.13;;;;;;;-144.30;23.43;80410.31;5068448;28;20191;-51
2023/09/12 07:41:49;;;;;;;4.25;3.00;;;;;;;-144.30;23.19;80215.78;5068957;28;20733;-58
2023/09/12 07:44:16;;;;;;;3.88;2.75;;;;;;;-144.30;23.06;80124.47;5068713;28;20218;-58
2023/09/12 07:46:45;;;;;;;4.05;2.70;;;;;;;-144.30;22.92;80019.28;5068839;28;20191;-51
2023/09/12 07:49:12;;;;;;;3.50;2.40;;;;;;;-144.30;23.04;80160.19;5068601;28;20215;-51
2023/09/12 07:51:39;;;;;;;2.85;2.47;;;;;;;-144.30;23.28;80404.34;5068735;28;20195;-51
2023/09/12 07:54:06;;;;;;;7.10;3.50;;;;;;;-144.30;23.40;80287.25;5068370;28;20202;-51
2023/09/12 07:56:33;;;;;;;3.20;2.90;;;;;;;-144.30;22.51;79892.25;5068789;28;20201;-58
2023/09/12 07:59:00;;;;;;;6.15;2.53;;;;;;;-144.30;22.31;79580.66;5068614;28;20202;-58
2023/09/12 08:01:27;;;;;;;8.10;2.78;;;;;;;-144.30;22.06;79370.28;5068549;28;20303;-51
2023/09/12 08:03:55;;;;;;;4.50;2.53;;;;;;;-144.30;22.04;79362.34;5068624;28;20210;-52
2023/09/12 08:06:24;;;;;;;3.10;2.30;;;;;;;-144.30;21.68;79455.63;5068546;28;20200;-58
2023/09/12 08:08:51;;;;;;;2.33;2.22;;;;;;;-144.30;21.58;79290.91;5068860;28;20473;-52
2023/09/12 08:11:18;;;;;;;3.83;2.30;;;;;;;-144.30;21.88;79425.88;5068614;28;20581;-53
2023/09/12 08:13:47;;;;;;;4.70;2.20;;;;;;;-144.30;21.95;79525.09;5068881;28;20221;-51
2023/09/12 08:16:13;;;;;;;4.10;2.13;;;;;;;-144.30;21.88;79489.38;5068599;28;20202;-51
2023/09/12 08:18:40;;;;;;;2.88;2.42;;;;;;;-144.30;21.95;79525.09;5068547;28;20731;-58
2023/09/12 08:21:09;;;;;;;6.63;2.20;;;;;;;-144.30;21.93;79660.03;5068340;28;20567;-54
2023/09/12 08:23:36;;;;;;;8.35;2.08;;;;;;;-144.30;22.57;80138.38;5068360;28;20207;-58
2023/09/12 08:26:03;;;;;;;5.63;2.20;;;;;;;-144.30;22.94;80368.63;5068515;28;20206;-56
2023/09/12 08:28:30;;;;;;;5.45;2.30;;;;;;;-144.30;23.77;80962.19;5068337;28;20696;-52
2023/09/12 08:30:56;;;;;;;3.70;2.25;;;;;;;-144.30;24.93;81629.34;5072160;28;20215;-53
2023/09/12 08:33:23;;;;;;;6.78;3.10;;;;;;;-144.30;26.91;82334.38;5071897;28;20191;-51
2023/09/12 08:35:51;;;;;;;6.82;3.35;;;;;;;-144.30;28.32;82683.97;5072398;28;20223;-52
2023/09/12 08:38:19;;;;;;;5.75;3.80;;;;;;;-144.30;29.48;82886.56;5071950;28;20204;-58
2023/09/12 08:40:50;;;;;;;3.58;2.45;;;;;;;-144.30;30.21;83047.50;5072196;28;20199;-58
2023/09/12 08:43:17;;;;;;;3.08;2.30;;;;;;;-144.30;31.32;83236.22;5071263;28;20264;-58
2023/09/12 08:45:45;;;;;;;3.97;2.42;;;;;;;-144.30;31.23;83087.22;5071557;28;20196;-51
2023/09/12 08:48:13;;;;;;;2.63;1.95;;;;;;;-144.30;30.87;83055.44;5072146;28;20195;-51
2023/09/12 08:50:41;;;;;;;6.75;2.72;;;;;;;-144.30;30.79;83055.44;5071628;28;20224;-57
2023/09/12 08:53:07;;;;;;;7.00;2.92;;;;;;;-144.30;30.77;82995.84;5071591;28;20200;-57
2023/09/12 08:55:36;;;;;;;5.15;2.97;;;;;;;-144.30;31.06;83148.81;5071965;28;20199;-49
2023/09/12 08:58:05;;;;;;;4.60;3.83;;;;;;;-144.30;31.76;83059.41;5071898;28;20196;-57
2023/09/12 09:00:32;;;;;;;7.90;7.18;;;;;;;-144.30;32.56;83401.13;5071695;28;20552;-56
2023/09/12 09:03:03;;;;;;;5.15;2.80;;;;;;;-144.30;33.12;83508.41;5071656;28;20192;-51
2023/09/12 09:05:31;;;;;;;3.28;2.35;;;;;;;-144.30;33.04;83464.69;5071611;28;20231;-50
2023/09/12 09:07:59;;;;;;;7.10;3.40;;;;;;;-144.30;32.87;83417.00;5071667;28;20532;-57
2023/09/12 09:10:32;;;;;;;10.77;9.73;;;;;;;-144.30;32.54;83341.50;5071350;28;20224;-56
2023/09/12 09:13:00;;;;;;;27.38;25.20;;;;;;;-144.30;32.56;83417.00;5066384;28;20238;-52
2023/09/12 09:15:28;;;;;;;6.00;4.85;;;;;;;-144.30;32.78;83401.13;5069155;28;20588;-50
2023/09/12 09:18:00;;;;;;;3.88;3.50;;;;;;;-144.30;32.21;83331.59;5070451;28;20410;-52
2023/09/12 09:20:30;;;;;;;3.03;2.70;;;;;;;-144.30;31.59;83210.38;5071394;28;20649;-57
2023/09/12 09:22:59;;;;;;;6.93;2.47;;;;;;;-144.30;31.21;83099.13;5070447;28;20204;-57
2023/09/12 09:25:26;;;;;;;2.70;2.40;;;;;;;-144.30;30.62;82932.28;5069895;28;20611;-57
2023/09/12 09:27:53;;;;;;;10.70;2.80;;;;;;;-144.30;30.23;82908.44;5070430;28;20196;-57
2023/09/12 09:30:40;;;;;;;5.00;2.42;;;;;;;-144.30;30.56;83025.63;5070592;28;20215;-51
2023/09/12 09:33:07;;;;;;;6.22;2.78;;;;;;;-144.30;30.45;82983.91;5069849;28;20218;-57
2023/09/12 09:35:34;;;;;;;3.92;2.67;;;;;;;-144.30;30.50;83007.75;5070637;28;20199;-57
2023/09/12 09:38:02;;;;;;;3.88;2.70;;;;;;;-144.30;29.96;82918.38;5070136;28;20196;-58
2023/09/12 09:40:29;;;;;;;4.47;2.63;;;;;;;-144.30;28.97;82640.25;5070143;28;20668;-57
2023/09/12 09:42:57;;;;;;;5.47;2.63;;;;;;;-144.30;27.94;82459.50;5070121;28;20674;-58
2023/09/12 09:45:25;;;;;;;3.33;2.55;;;;;;;-144.30;28.00;82415.81;5070707;28;20283;-58
2023/09/12 09:47:52;;;;;;;6.90;2.70;;;;;;;-144.30;28.17;82638.28;5070704;28;20196;-58
2023/09/12 09:50:19;;;;;;;8.23;2.92;;;;;;;-144.30;28.66;82765.41;5070686;28;20222;-57
2023/09/12 09:52:46;;;;;;;4.95;2.63;;;;;;;-144.30;28.87;82852.81;5071079;28;20576;-51
2023/09/12 09:55:15;;;;;;;8.13;2.15;;;;;;;-144.30;28.88;82912.41;5070656;28;20456;-58
2023/09/12 09:57:42;;;;;;;4.38;2.45;;;;;;;-144.30;29.20;82966.03;5070166;28;20653;-57
2023/09/12 10:00:14;;;;;;;3.05;2.40;;;;;;;-144.30;29.48;83057.41;5070149;28;20202;-58
2023/09/12 10:02:44;;;;;;;21.17;19.35;;;;;;;-144.30;30.11;83087.22;5070569;28;20672;-57
2023/09/12 10:05:12;;;;;;;10.32;6.63;;;;;;;-144.30;30.24;83178.59;5070179;28;20671;-57
2023/09/12 10:07:41;;;;;;;5.35;2.30;;;;;;;-144.30;29.51;83240.19;5070747;28;20591;-57
2023/09/12 10:10:09;;;;;;;5.30;2.53;;;;;;;-144.30;29.73;83246.16;5070302;28;20610;-57
2023/09/12 10:12:37;;;;;;;7.07;4.45;;;;;;;-144.30;29.96;83258.06;5068400;28;20204;-57
2023/09/12 10:15:05;;;;;;;16.40;8.07;;;;;;;-144.30;29.78;83198.47;5067865;28;20199;-57
2023/09/12 10:17:37;;;;;;;7.25;3.22;;;;;;;-144.30;30.32;83250.13;5069233;28;20218;-50
2023/09/12 10:20:13;;;;;;;7.20;5.35;;;;;;;-144.30;29.95;83252.09;5069556;28;20199;-51
2023/09/12 10:22:44;;;;;;;11.25;5.10;;;;;;;-144.30;30.11;83212.38;5069642;28;20233;-51
2023/09/12 10:25:12;;;;;;;10.40;4.70;;;;;;;-144.30;30.15;83220.31;5069409;28;20237;-57
2023/09/12 10:27:39;;;;;;;13.85;8.38;;;;;;;-144.30;30.26;83218.34;5069623;28;20195;-58
2023/09/12 10:30:09;;;;;;;6.20;3.72;;;;;;;-144.30;30.31;83186.56;5068907;28;20216;-51
2023/09/12 10:32:37;;;;;;;4.10;3.72;;;;;;;-144.30;30.19;83178.59;5069075;28;20211;-57
2023/09/12 10:35:09;;;;;;;7.78;3.00;;;;;;;-144.30;30.38;83196.47;5069377;28;20266;-58
2023/09/12 10:37:38;;;;;;;3.70;3.00;;;;;;;-144.30;30.23;83212.38;5068524;28;20195;-49
2023/09/12 10:40:09;;;;;;;16.17;3.33;;;;;;;-144.30;30.06;83176.63;5068700;28;20196;-50
2023/09/12 10:42:36;;;;;;;5.45;2.75;;;;;;;-144.30;30.19;83134.91;5068697;28;20202;-56
2023/09/12 10:45:07;;;;;;;7.18;3.60;;;;;;;-144.30;30.43;83170.66;5068345;28;20206;-57
2023/09/12 10:47:35;;;;;;;6.45;3.10;;;;;;;-144.30;30.64;83146.81;5068696;28;20654;-57
2023/09/12 10:50:03;;;;;;;7.55;5.00;;;;;;;-144.30;30.50;83154.75;5068780;28;20212;-58
2023/09/12 10:52:32;;;;;;;7.03;3.97;;;;;;;-144.30;31.13;83222.31;5066151;28;20192;-58
2023/09/12 10:54:59;;;;;;;3.95;3.45;;;;;;;-144.30;31.13;83238.19;5066180;28;20730;-58
2023/09/12 10:57:27;;;;;;;5.25;3.90;;;;;;;-144.30;31.54;83299.78;5068589;28;20196;-58
2023/09/12 11:00:18;;;;;;;4.90;3.50;;;;;;;-144.30;31.59;83252.09;5068843;28;20276;-58
2023/09/12 11:02:45;;;;;;;6.60;3.40;;;;;;;-144.30;31.15;83220.31;5052714;28;20200;-58
2023/09/12 11:05:37;;;;;;;5.55;4.28;;;;;;;-144.30;31.29;83168.66;5068619;28;20203;-57
2023/09/12 11:08:06;;;;;;;6.20;3.53;;;;;;;-144.30;30.81;83262.03;5068428;28;20199;-58
2023/09/12 11:10:33;;;;;;;3.58;3.38;;;;;;;-144.30;30.90;83202.44;5068489;28;20207;-51
2023/09/12 11:13:00;;;;;;;3.45;2.85;;;;;;;-144.30;30.93;83242.19;5067577;28;20200;-49
2023/09/12 11:15:28;;;;;;;8.02;2.95;;;;;;;-144.30;31.08;83212.38;5068670;28;20618;-50
2023/09/12 11:18:04;;;;;;;6.32;3.45;;;;;;;-144.30;31.23;83238.19;5068107;28;20750;-58
2023/09/12 11:20:53;;;;;;;4.72;3.67;;;;;;;-144.30;31.16;83228.28;5066364;28;20192;-50